createdAt,value
2023-04-21T00:00:48.409Z,1008.31
2023-04-21T00:01:48.455Z,1008.25
2023-04-21T00:02:48.675Z,1008.27
2023-04-21T00:03:48.586Z,1008.32
2023-04-21T00:04:48.707Z,1008.40
2023-04-21T00:05:48.724Z,1008.42
2023-04-21T00:06:48.560Z,1008.41
2023-04-21T00:07:48.580Z,1008.37
2023-04-21T00:08:48.601Z,1008.28
2023-04-21T00:09:48.629Z,1008.30
2023-04-21T00:10:48.654Z,1008.30
2023-04-21T00:11:48.688Z,1008.33
2023-04-21T00:12:48.703Z,1008.28
2023-04-21T00:13:48.725Z,1008.30
2023-04-21T00:14:48.758Z,1008.26
2023-04-21T00:15:48.823Z,1008.25
2023-04-21T00:16:48.806Z,1008.22
2023-04-21T00:17:48.874Z,1008.17
2023-04-21T00:18:48.848Z,1008.23
2023-04-21T00:19:48.874Z,1008.24
2023-04-21T00:20:48.898Z,1008.24
2023-04-21T00:21:48.922Z,1008.24
2023-04-21T00:22:48.947Z,1008.25
2023-04-21T00:23:48.973Z,1008.18
2023-04-21T00:24:49.000Z,1008.14
2023-04-21T00:25:49.042Z,1008.08
2023-04-21T00:26:49.044Z,1008.10
2023-04-21T00:27:49.072Z,1008.10
2023-04-21T00:28:49.096Z,1008.10
2023-04-21T00:29:49.125Z,1008.10
2023-04-21T00:30:49.151Z,1008.09
2023-04-21T00:31:49.254Z,1008.08
2023-04-21T00:32:49.215Z,1008.11
2023-04-21T00:33:49.249Z,1008.09
2023-04-21T00:34:49.245Z,1008.11
2023-04-21T00:35:49.273Z,1008.10
2023-04-21T00:36:49.293Z,1008.08
2023-04-21T00:37:49.321Z,1008.05
2023-04-21T00:38:49.342Z,1008.02
2023-04-21T00:39:49.370Z,1008.00
2023-04-21T00:40:49.403Z,1008.04
2023-04-21T00:41:49.417Z,1008.03
2023-04-21T00:42:49.445Z,1007.96
2023-04-21T00:43:49.468Z,1008.00
2023-04-21T00:44:49.492Z,1007.96
2023-04-21T00:45:49.821Z,1007.98
2023-04-21T00:46:49.602Z,1007.99
2023-04-21T00:47:49.587Z,1007.99
2023-04-21T00:48:49.599Z,1008.03
2023-04-21T00:49:50.648Z,1008.05
2023-04-21T00:50:49.642Z,1008.04
2023-04-21T00:51:49.666Z,1008.09
2023-04-21T00:52:49.689Z,1008.05
2023-04-21T00:53:50.122Z,1008.04
2023-04-21T00:54:49.747Z,1008.07
2023-04-21T00:55:49.769Z,1008.05
2023-04-21T00:56:49.787Z,1008.02
2023-04-21T00:57:49.812Z,1007.97
2023-04-21T00:58:49.843Z,1007.95
2023-04-21T00:59:50.063Z,1007.94
2023-04-21T01:00:49.951Z,1007.92
2023-04-21T01:01:49.952Z,1007.92
2023-04-21T01:02:50.178Z,1007.92
2023-04-21T01:03:50.203Z,1007.87
2023-04-21T01:04:50.396Z,1007.86
2023-04-21T01:05:50.034Z,1007.87
2023-04-21T01:06:50.040Z,1007.87
2023-04-21T01:07:50.062Z,1007.85
2023-04-21T01:08:50.084Z,1007.77
2023-04-21T01:09:50.115Z,1007.87
2023-04-21T01:10:50.134Z,1007.85
2023-04-21T01:11:50.165Z,1007.89
2023-04-21T01:12:50.188Z,1007.83
2023-04-21T01:13:50.216Z,1007.82
2023-04-21T01:14:50.237Z,1007.86
2023-04-21T01:15:50.264Z,1007.86
2023-04-21T01:16:50.303Z,1007.85
2023-04-21T01:17:50.339Z,1007.82
2023-04-21T01:18:50.338Z,1007.81
2023-04-21T01:19:50.364Z,1007.87
2023-04-21T01:20:50.385Z,1007.83
2023-04-21T01:21:50.439Z,1007.81
2023-04-21T01:22:50.437Z,1007.85
2023-04-21T01:23:50.463Z,1007.84
2023-04-21T01:24:50.488Z,1007.88
2023-04-21T01:25:50.515Z,1007.89
2023-04-21T01:26:50.544Z,1007.85
2023-04-21T01:27:50.575Z,1007.88
2023-04-21T01:28:50.619Z,1007.89
2023-04-21T01:29:50.626Z,1007.93
2023-04-21T01:30:50.660Z,1007.88
2023-04-21T01:31:50.714Z,1007.92
2023-04-21T01:32:50.750Z,1007.92
2023-04-21T01:33:50.722Z,1007.92
2023-04-21T01:34:50.750Z,1007.89
2023-04-21T01:35:50.770Z,1007.93
2023-04-21T01:36:50.792Z,1007.92
2023-04-21T01:37:50.835Z,1007.89
2023-04-21T01:38:50.840Z,1007.90
2023-04-21T01:39:50.871Z,1007.92
2023-04-21T01:40:50.896Z,1007.90
2023-04-21T01:41:50.916Z,1007.93
2023-04-21T01:42:50.944Z,1007.93
2023-04-21T01:43:50.967Z,1007.94
2023-04-21T01:44:51.041Z,1007.95
2023-04-21T01:45:51.034Z,1007.99
2023-04-21T01:46:51.059Z,1007.98
2023-04-21T01:47:51.095Z,1008.01
2023-04-21T01:48:51.098Z,1007.95
2023-04-21T01:49:51.124Z,1007.95
2023-04-21T01:50:51.145Z,1007.98
2023-04-21T01:51:51.168Z,1007.95
2023-04-21T01:52:51.197Z,1008.01
2023-04-21T01:53:51.238Z,1008.05
2023-04-21T01:54:51.246Z,1008.04
2023-04-21T01:55:51.283Z,1008.00
2023-04-21T01:56:51.445Z,1007.97
2023-04-21T01:57:51.328Z,1008.01
2023-04-21T01:58:51.350Z,1007.97
2023-04-21T01:59:51.385Z,1007.95
2023-04-21T02:00:51.399Z,1008.01
2023-04-21T02:01:51.483Z,1007.96
2023-04-21T02:02:51.538Z,1007.94
2023-04-21T02:03:51.697Z,1007.99
2023-04-21T02:04:51.502Z,1007.94
2023-04-21T02:05:51.525Z,1007.95
2023-04-21T02:06:51.546Z,1007.97
2023-04-21T02:07:51.584Z,1007.98
2023-04-21T02:08:51.604Z,1008.00
2023-04-21T02:09:51.652Z,1007.99
2023-04-21T02:10:51.651Z,1007.92
2023-04-21T02:11:51.674Z,1007.94
2023-04-21T02:12:51.700Z,1007.95
2023-04-21T02:13:51.722Z,1007.98
2023-04-21T02:14:51.747Z,1007.92
2023-04-21T02:15:59.644Z,1007.97
2023-04-21T02:16:51.840Z,1007.90
2023-04-21T02:17:51.869Z,1007.98
2023-04-21T02:18:51.849Z,1007.98
2023-04-21T02:19:51.872Z,1008.00
2023-04-21T02:20:51.897Z,1007.96
2023-04-21T02:21:51.918Z,1007.94
2023-04-21T02:22:51.956Z,1007.96
2023-04-21T02:23:52.022Z,1007.89
2023-04-21T02:24:52.010Z,1007.94
2023-04-21T02:25:52.041Z,1007.92
2023-04-21T02:26:52.053Z,1007.93
2023-04-21T02:27:52.073Z,1007.93
2023-04-21T02:28:52.107Z,1007.90
2023-04-21T02:29:52.122Z,1007.88
2023-04-21T02:30:52.198Z,1007.90
2023-04-21T02:31:59.356Z,1007.90
2023-04-21T02:32:52.293Z,1007.90
2023-04-21T02:33:52.229Z,1007.88
2023-04-21T02:34:52.252Z,1007.88
2023-04-21T02:35:52.273Z,1007.86
2023-04-21T02:36:52.310Z,1007.83
2023-04-21T02:37:52.324Z,1007.83
2023-04-21T02:38:52.351Z,1007.82
2023-04-21T02:39:52.388Z,1007.81
2023-04-21T02:40:52.416Z,1007.81
2023-04-21T02:41:52.447Z,1007.81
2023-04-21T02:42:52.455Z,1007.79
2023-04-21T02:43:52.483Z,1007.85
2023-04-21T02:44:52.497Z,1007.89
2023-04-21T02:45:52.522Z,1007.91
2023-04-21T02:46:52.756Z,1007.94
2023-04-21T02:47:52.611Z,1007.93
2023-04-21T02:48:52.599Z,1007.96
2023-04-21T02:49:52.621Z,1007.92
2023-04-21T02:50:52.648Z,1007.94
2023-04-21T02:51:52.681Z,1007.92
2023-04-21T02:52:52.702Z,1007.97
2023-04-21T02:53:52.727Z,1007.92
2023-04-21T02:54:52.756Z,1007.94
2023-04-21T02:55:52.776Z,1007.97
2023-04-21T02:56:52.999Z,1007.94
2023-04-21T02:57:53.042Z,1007.95
2023-04-21T02:58:53.066Z,1007.97
2023-04-21T02:59:53.028Z,1007.95
2023-04-21T03:00:52.920Z,1007.98
2023-04-21T03:01:52.925Z,1007.98
2023-04-21T03:02:53.368Z,1007.97
2023-04-21T03:03:53.109Z,1007.94
2023-04-21T03:04:53.000Z,1007.99
2023-04-21T03:05:53.022Z,1008.00
2023-04-21T03:06:53.051Z,1008.00
2023-04-21T03:07:53.075Z,1007.98
2023-04-21T03:08:53.097Z,1007.93
2023-04-21T03:09:53.119Z,1007.96
2023-04-21T03:10:53.150Z,1007.94
2023-04-21T03:11:53.174Z,1007.94
2023-04-21T03:12:53.212Z,1008.03
2023-04-21T03:13:53.243Z,1007.94
2023-04-21T03:14:53.249Z,1008.01
2023-04-21T03:15:53.272Z,1007.97
2023-04-21T03:16:53.389Z,1008.01
2023-04-21T03:17:53.407Z,1007.98
2023-04-21T03:18:53.354Z,1008.00
2023-04-21T03:19:53.375Z,1007.99
2023-04-21T03:20:53.398Z,1007.97
2023-04-21T03:21:53.436Z,1008.06
2023-04-21T03:22:53.451Z,1008.08
2023-04-21T03:23:53.477Z,1008.11
2023-04-21T03:24:53.497Z,1008.14
2023-04-21T03:25:53.522Z,1008.08
2023-04-21T03:26:53.556Z,1008.11
2023-04-21T03:27:53.573Z,1008.06
2023-04-21T03:28:53.598Z,1008.02
2023-04-21T03:29:53.646Z,1008.06
2023-04-21T03:30:53.648Z,1008.08
2023-04-21T03:31:53.695Z,1008.13
2023-04-21T03:32:53.732Z,1008.12
2023-04-21T03:33:53.727Z,1008.11
2023-04-21T03:34:53.747Z,1008.08
2023-04-21T03:35:53.790Z,1008.11
2023-04-21T03:36:53.797Z,1008.07
2023-04-21T03:37:53.835Z,1008.04
2023-04-21T03:38:53.853Z,1008.07
2023-04-21T03:39:53.869Z,1008.13
2023-04-21T03:40:53.900Z,1008.11
2023-04-21T03:41:53.923Z,1008.13
2023-04-21T03:42:53.949Z,1008.11
2023-04-21T03:43:53.972Z,1008.06
2023-04-21T03:44:53.995Z,1008.07
2023-04-21T03:45:54.082Z,1008.05
2023-04-21T03:46:54.048Z,1008.04
2023-04-21T03:47:54.087Z,1008.09
2023-04-21T03:48:54.097Z,1008.09
2023-04-21T03:49:54.123Z,1008.08
2023-04-21T03:50:54.146Z,1008.08
2023-04-21T03:51:54.173Z,1008.07
2023-04-21T03:52:54.192Z,1008.07
2023-04-21T03:53:54.222Z,1008.04
2023-04-21T03:54:54.248Z,1008.06
2023-04-21T03:55:54.274Z,1008.02
2023-04-21T03:56:54.297Z,1008.00
2023-04-21T03:57:54.320Z,1008.02
2023-04-21T03:58:54.346Z,1008.01
2023-04-21T03:59:54.367Z,1008.00
2023-04-21T04:00:54.394Z,1007.95
2023-04-21T04:01:54.433Z,1007.98
2023-04-21T04:02:54.525Z,1007.99
2023-04-21T04:03:54.635Z,1007.99
2023-04-21T04:04:54.526Z,1008.02
2023-04-21T04:05:54.520Z,1007.98
2023-04-21T04:06:54.544Z,1007.96
2023-04-21T04:07:54.563Z,1008.00
2023-04-21T04:08:54.589Z,1007.99
2023-04-21T04:09:54.614Z,1008.00
2023-04-21T04:10:54.639Z,1008.00
2023-04-21T04:11:54.681Z,1007.96
2023-04-21T04:12:54.694Z,1007.93
2023-04-21T04:13:54.713Z,1007.97
2023-04-21T04:14:54.740Z,1007.94
2023-04-21T04:15:54.805Z,1007.94
2023-04-21T04:16:54.786Z,1007.95
2023-04-21T04:17:54.861Z,1007.95
2023-04-21T04:18:54.841Z,1007.95
2023-04-21T04:19:54.860Z,1007.93
2023-04-21T04:20:54.883Z,1008.02
2023-04-21T04:21:54.909Z,1008.02
2023-04-21T04:22:54.934Z,1007.98
2023-04-21T04:23:54.959Z,1008.01
2023-04-21T04:24:54.986Z,1008.01
2023-04-21T04:25:55.009Z,1008.02
2023-04-21T04:26:55.033Z,1008.01
2023-04-21T04:27:55.056Z,1008.06
2023-04-21T04:28:55.081Z,1008.02
2023-04-21T04:29:55.105Z,1008.11
2023-04-21T04:30:55.158Z,1008.07
2023-04-21T04:31:55.258Z,1008.09
2023-04-21T04:32:55.252Z,1008.18
2023-04-21T04:33:55.753Z,1008.13
2023-04-21T04:34:55.228Z,1008.16
2023-04-21T04:35:55.248Z,1008.13
2023-04-21T04:36:55.278Z,1008.11
2023-04-21T04:37:55.300Z,1008.09
2023-04-21T04:38:55.326Z,1008.05
2023-04-21T04:39:55.373Z,1008.08
2023-04-21T04:40:55.379Z,1008.07
2023-04-21T04:41:55.424Z,1008.11
2023-04-21T04:42:55.431Z,1008.03
2023-04-21T04:43:55.454Z,1008.03
2023-04-21T04:44:55.474Z,1008.04
2023-04-21T04:45:55.496Z,1008.01
2023-04-21T04:46:55.585Z,1008.01
2023-04-21T04:47:55.601Z,1008.05
2023-04-21T04:48:55.568Z,1008.04
2023-04-21T04:49:55.613Z,1008.07
2023-04-21T04:50:55.627Z,1008.03
2023-04-21T04:51:55.641Z,1008.02
2023-04-21T04:52:55.670Z,1008.01
2023-04-21T04:53:55.694Z,1008.04
2023-04-21T04:54:55.719Z,1008.08
2023-04-21T04:55:55.740Z,1008.04
2023-04-21T04:56:55.766Z,1008.04
2023-04-21T04:57:55.790Z,1008.09
2023-04-21T04:58:55.816Z,1008.10
2023-04-21T04:59:55.839Z,1008.11
2023-04-21T05:00:55.862Z,1008.14
2023-04-21T05:01:55.934Z,1008.12
2023-04-21T05:02:56.055Z,1008.12
2023-04-21T05:03:56.106Z,1008.20
2023-04-21T05:04:56.104Z,1008.20
2023-04-21T05:05:56.005Z,1008.17
2023-04-21T05:06:56.024Z,1008.15
2023-04-21T05:07:56.038Z,1008.17
2023-04-21T05:08:56.084Z,1008.17
2023-04-21T05:09:56.087Z,1008.17
2023-04-21T05:10:56.120Z,1008.21
2023-04-21T05:11:56.138Z,1008.20
2023-04-21T05:12:56.160Z,1008.22
2023-04-21T05:13:56.189Z,1008.18
2023-04-21T05:14:56.212Z,1008.17
2023-04-21T05:15:56.235Z,1008.16
2023-04-21T05:16:56.287Z,1008.17
2023-04-21T05:17:56.323Z,1008.20
2023-04-21T05:18:56.368Z,1008.20
2023-04-21T05:19:56.361Z,1008.23
2023-04-21T05:20:56.360Z,1008.24
2023-04-21T05:21:56.402Z,1008.21
2023-04-21T05:22:56.418Z,1008.18
2023-04-21T05:23:56.440Z,1008.18
2023-04-21T05:24:56.466Z,1008.17
2023-04-21T05:25:56.490Z,1008.13
2023-04-21T05:26:56.519Z,1008.15
2023-04-21T05:27:56.531Z,1008.16
2023-04-21T05:28:56.601Z,1008.18
2023-04-21T05:29:56.581Z,1008.22
2023-04-21T05:30:56.609Z,1008.24
2023-04-21T05:31:56.742Z,1008.27
2023-04-21T05:32:56.704Z,1008.23
2023-04-21T05:33:56.681Z,1008.24
2023-04-21T05:34:56.727Z,1008.26
2023-04-21T05:35:56.730Z,1008.28
2023-04-21T05:36:56.758Z,1008.35
2023-04-21T05:37:56.802Z,1008.30
2023-04-21T05:38:56.812Z,1008.27
2023-04-21T05:39:56.832Z,1008.37
2023-04-21T05:40:56.857Z,1008.30
2023-04-21T05:41:56.884Z,1008.33
2023-04-21T05:42:56.922Z,1008.32
2023-04-21T05:43:56.931Z,1008.32
2023-04-21T05:44:56.954Z,1008.30
2023-04-21T05:45:57.016Z,1008.30
2023-04-21T05:46:57.007Z,1008.33
2023-04-21T05:47:57.097Z,1008.40
2023-04-21T05:48:57.058Z,1008.37
2023-04-21T05:49:57.080Z,1008.33
2023-04-21T05:50:57.104Z,1008.35
2023-04-21T05:51:57.132Z,1008.35
2023-04-21T05:52:57.152Z,1008.31
2023-04-21T05:53:57.203Z,1008.34
2023-04-21T05:54:57.203Z,1008.36
2023-04-21T05:55:57.228Z,1008.31
2023-04-21T05:56:57.256Z,1008.33
2023-04-21T05:57:57.281Z,1008.35
2023-04-21T05:58:57.307Z,1008.34
2023-04-21T05:59:57.334Z,1008.37
2023-04-21T06:00:57.368Z,1008.36
2023-04-21T06:01:57.381Z,1008.35
2023-04-21T06:02:57.590Z,1008.34
2023-04-21T06:03:57.586Z,1008.36
2023-04-21T06:04:57.594Z,1008.26
2023-04-21T06:05:57.528Z,1008.25
2023-04-21T06:06:57.539Z,1008.25
2023-04-21T06:07:57.532Z,1008.26
2023-04-21T06:08:57.560Z,1008.22
2023-04-21T06:09:57.606Z,1008.20
2023-04-21T06:10:57.605Z,1008.21
2023-04-21T06:11:57.637Z,1008.20
2023-04-21T06:12:57.665Z,1008.23
2023-04-21T06:13:57.691Z,1008.19
2023-04-21T06:14:57.838Z,1008.24
2023-04-21T06:15:57.808Z,1008.19
2023-04-21T06:16:57.761Z,1008.19
2023-04-21T06:17:57.863Z,1008.19
2023-04-21T06:18:57.807Z,1008.22
2023-04-21T06:19:57.835Z,1008.20
2023-04-21T06:20:57.858Z,1008.23
2023-04-21T06:21:57.895Z,1008.30
2023-04-21T06:22:57.912Z,1008.20
2023-04-21T06:23:57.934Z,1008.18
2023-04-21T06:24:58.778Z,1008.17
2023-04-21T06:25:58.012Z,1008.15
2023-04-21T06:26:58.014Z,1008.19
2023-04-21T06:27:58.042Z,1008.19
2023-04-21T06:28:58.074Z,1008.23
2023-04-21T06:29:58.092Z,1008.19
2023-04-21T06:30:58.119Z,1008.20
2023-04-21T06:31:58.201Z,1008.21
2023-04-21T06:32:58.223Z,1008.15
2023-04-21T06:33:58.198Z,1008.16
2023-04-21T06:34:58.231Z,1008.17
2023-04-21T06:35:58.254Z,1008.17
2023-04-21T06:36:58.277Z,1008.08
2023-04-21T06:37:58.306Z,1008.12
2023-04-21T06:38:58.328Z,1008.08
2023-04-21T06:39:58.358Z,1008.09
2023-04-21T06:40:58.380Z,1008.02
2023-04-21T06:41:58.426Z,1008.07
2023-04-21T06:42:58.515Z,1008.05
2023-04-21T06:43:58.465Z,1008.05
2023-04-21T06:44:58.551Z,1008.06
2023-04-21T06:45:58.518Z,1008.08
2023-04-21T06:46:58.616Z,1008.13
2023-04-21T06:47:58.696Z,1008.14
2023-04-21T06:48:58.681Z,1008.12
2023-04-21T06:49:58.636Z,1008.17
2023-04-21T06:50:58.653Z,1008.12
2023-04-21T06:51:58.680Z,1008.15
2023-04-21T06:52:58.705Z,1008.09
2023-04-21T06:53:58.737Z,1008.14
2023-04-21T06:54:58.760Z,1008.17
2023-04-21T06:56:01.817Z,1008.10
2023-04-21T06:56:58.814Z,1008.09
2023-04-21T06:57:58.861Z,1008.10
2023-04-21T06:58:58.872Z,1008.04
2023-04-21T06:59:58.898Z,1008.08
2023-04-21T07:00:58.989Z,1008.10
2023-04-21T07:01:58.953Z,1008.05
2023-04-21T07:02:59.053Z,1008.07
2023-04-21T07:03:59.112Z,1008.09
2023-04-21T07:04:59.039Z,1007.99
2023-04-21T07:05:59.076Z,1007.99
2023-04-21T07:07:01.670Z,1008.01
2023-04-21T07:07:59.126Z,1008.01
2023-04-21T07:08:59.154Z,1008.06
2023-04-21T07:09:59.187Z,1008.00
2023-04-21T07:10:59.207Z,1008.00
2023-04-21T07:11:59.240Z,1007.98
2023-04-21T07:12:59.266Z,1007.98
2023-04-21T07:13:59.311Z,1007.93
2023-04-21T07:14:59.328Z,1007.91
2023-04-21T07:15:59.365Z,1007.98
2023-04-21T07:16:59.479Z,1007.93
2023-04-21T07:17:59.438Z,1007.99
2023-04-21T07:18:59.436Z,1007.95
2023-04-21T07:19:59.465Z,1007.98
2023-04-21T07:20:59.493Z,1008.03
2023-04-21T07:21:59.526Z,1008.02
2023-04-21T07:22:59.557Z,1008.01
2023-04-21T07:23:59.582Z,1008.08
2023-04-21T07:24:59.610Z,1008.09
2023-04-21T07:27:52.312Z,1008.00
2023-04-21T07:28:52.329Z,1008.11
2023-04-21T07:29:52.374Z,1008.05
2023-04-21T07:30:52.422Z,1008.03
2023-04-21T07:31:52.420Z,1008.01
2023-04-21T07:32:52.495Z,1008.03
2023-04-21T07:33:53.497Z,1007.97
2023-04-21T07:34:52.499Z,1007.99
2023-04-21T07:35:52.539Z,1008.06
2023-04-21T07:36:52.570Z,1008.01
2023-04-21T07:37:52.588Z,1007.99
2023-04-21T07:38:52.624Z,1007.98
2023-04-21T07:39:52.861Z,1007.97
2023-04-21T07:40:52.682Z,1007.97
2023-04-21T07:41:52.728Z,1007.99
2023-04-21T07:42:52.727Z,1007.94
2023-04-21T07:43:53.878Z,1007.93
2023-04-21T07:44:52.787Z,1007.93
2023-04-21T07:45:53.139Z,1007.93
2023-04-21T07:46:52.842Z,1007.89
2023-04-21T07:49:48.474Z,1008.01
2023-04-21T07:50:48.223Z,1008.05
2023-04-21T07:51:48.283Z,1008.06
2023-04-21T07:52:48.690Z,1008.14
2023-04-21T07:53:48.324Z,1007.99
2023-04-21T07:54:48.352Z,1007.92
2023-04-21T07:55:49.396Z,1007.95
2023-04-21T07:56:48.414Z,1007.91
2023-04-21T07:58:48.470Z,1008.01
2023-04-21T08:00:48.929Z,1007.98
2023-04-21T08:01:48.578Z,1008.01
2023-04-21T08:02:48.755Z,1007.94
2023-04-21T08:03:48.935Z,1007.98
2023-04-21T08:04:48.728Z,1007.95
2023-04-21T08:05:48.757Z,1007.90
2023-04-21T08:06:48.815Z,1007.91
2023-04-21T08:07:48.722Z,1007.99
2023-04-21T08:08:48.768Z,1008.05
2023-04-21T08:09:49.000Z,1007.94
2023-04-21T08:10:48.803Z,1007.91
2023-04-21T08:11:48.850Z,1007.91
2023-04-21T08:12:48.872Z,1007.89
2023-04-21T08:13:48.906Z,1007.88
2023-04-21T08:14:49.137Z,1007.94
2023-04-21T08:15:48.987Z,1007.93
2023-04-21T08:16:49.057Z,1008.01
2023-04-21T08:17:49.686Z,1007.96
2023-04-21T08:18:49.065Z,1007.93
2023-04-21T08:19:49.068Z,1007.88
2023-04-21T08:20:49.525Z,1007.90
2023-04-21T08:21:49.541Z,1007.96
2023-04-21T08:22:49.211Z,1007.90
2023-04-21T08:23:49.504Z,1007.92
2023-04-21T08:24:49.221Z,1007.91
2023-04-21T08:25:49.461Z,1007.90
2023-04-21T08:26:49.504Z,1007.87
2023-04-21T08:28:49.331Z,1007.92
2023-04-21T08:29:49.357Z,1007.92
2023-04-21T08:30:49.428Z,1007.90
2023-04-21T08:31:49.438Z,1007.99
2023-04-21T08:32:49.697Z,1007.97
2023-04-21T08:34:00.445Z,1008.00
2023-04-21T08:36:02.490Z,1008.17
2023-04-21T08:36:49.607Z,1008.18
2023-04-21T08:37:52.273Z,1008.13
2023-04-21T08:39:49.646Z,1008.02
2023-04-21T08:40:49.673Z,1007.94
2023-04-21T08:41:49.706Z,1007.96
2023-04-21T08:42:49.733Z,1008.00
2023-04-21T08:43:49.770Z,1007.97
2023-04-21T08:44:49.796Z,1008.05
2023-04-21T08:45:51.059Z,1007.96
2023-04-21T08:46:49.849Z,1007.94
2023-04-21T08:47:49.905Z,1007.88
2023-04-21T08:48:49.922Z,1007.87
2023-04-21T08:49:49.995Z,1007.87
2023-04-21T08:54:50.097Z,1008.09
2023-04-21T08:55:59.582Z,1008.08
2023-04-21T08:56:50.167Z,1008.04
2023-04-21T08:57:50.188Z,1007.91
2023-04-21T08:58:50.228Z,1007.98
2023-04-21T08:59:50.252Z,1008.01
2023-04-21T09:00:50.348Z,1007.95
2023-04-21T09:01:50.364Z,1007.82
2023-04-21T09:02:59.368Z,1007.99
2023-04-21T09:03:50.498Z,1008.00
2023-04-21T09:04:50.799Z,1007.89
2023-04-21T09:05:50.672Z,1007.96
2023-04-21T09:06:50.653Z,1007.87
2023-04-21T09:07:50.500Z,1007.84
2023-04-21T09:08:50.533Z,1007.86
2023-04-21T09:09:50.569Z,1008.08
2023-04-21T09:10:52.484Z,1008.08
2023-04-21T09:11:50.648Z,1008.03
2023-04-21T09:12:50.664Z,1008.05
2023-04-21T09:13:50.695Z,1008.01
2023-04-21T09:14:50.729Z,1007.89
2023-04-21T09:15:50.764Z,1008.04
2023-04-21T09:16:50.810Z,1008.04
2023-04-21T09:17:51.658Z,1008.05
2023-04-21T09:18:50.859Z,1008.06
2023-04-21T09:19:50.901Z,1007.99
2023-04-21T09:20:50.931Z,1007.84
2023-04-21T09:21:50.983Z,1007.83
2023-04-21T09:22:51.001Z,1007.97
2023-04-21T09:23:51.043Z,1007.96
2023-04-21T09:24:51.068Z,1007.86
2023-04-21T09:25:51.092Z,1007.89
2023-04-21T09:26:51.127Z,1007.85
2023-04-21T09:27:51.169Z,1007.92
2023-04-21T09:28:51.195Z,1007.86
2023-04-21T09:29:51.226Z,1007.74
2023-04-21T09:30:51.294Z,1007.68
2023-04-21T09:31:51.294Z,1007.63
2023-04-21T09:32:51.366Z,1007.73
2023-04-21T09:33:57.770Z,1007.69
2023-04-21T09:34:51.396Z,1007.88
2023-04-21T09:35:51.430Z,1007.66
2023-04-21T09:36:51.478Z,1007.65
2023-04-21T09:37:51.520Z,1007.89
2023-04-21T09:38:58.832Z,1007.62
2023-04-21T09:40:03.663Z,1007.74
2023-04-21T09:40:51.594Z,1007.54
2023-04-21T09:41:51.624Z,1007.72
2023-04-21T09:42:51.661Z,1007.81
2023-04-21T09:43:51.697Z,1007.82
2023-04-21T09:44:59.393Z,1007.78
2023-04-21T09:45:51.776Z,1007.48
2023-04-21T09:46:51.917Z,1007.52
2023-04-21T09:47:51.921Z,1007.62
2023-04-21T09:48:51.865Z,1007.45
2023-04-21T09:49:51.893Z,1007.41
2023-04-21T09:51:24.267Z,1007.41
2023-04-21T09:52:51.992Z,1007.44
2023-04-21T09:53:52.046Z,1007.58
2023-04-21T09:54:52.085Z,1007.47
2023-04-21T09:55:52.083Z,1007.50
2023-04-21T09:56:52.119Z,1007.33
2023-04-21T09:57:52.155Z,1007.35
2023-04-21T09:58:52.187Z,1007.54
2023-04-21T09:59:52.216Z,1007.34
2023-04-21T10:00:52.249Z,1007.26
2023-04-21T10:01:52.323Z,1007.44
2023-04-21T10:02:52.463Z,1007.30
2023-04-21T10:03:52.777Z,1007.23
2023-04-21T10:04:52.672Z,1007.34
2023-04-21T10:05:52.511Z,1007.25
2023-04-21T10:06:52.440Z,1007.21
2023-04-21T10:07:52.477Z,1007.24
2023-04-21T10:08:52.504Z,1007.18
2023-04-21T10:09:52.829Z,1007.27
2023-04-21T10:10:52.570Z,1007.25
2023-04-21T10:11:52.602Z,1007.23
2023-04-21T10:12:52.633Z,1007.21
2023-04-21T10:13:52.689Z,1007.18
2023-04-21T10:14:52.697Z,1007.14
2023-04-21T10:15:52.752Z,1007.14
2023-04-21T10:16:52.761Z,1007.12
2023-04-21T10:17:53.029Z,1007.14
2023-04-21T10:18:53.033Z,1007.21
2023-04-21T10:19:53.103Z,1007.12
2023-04-21T10:20:53.089Z,1007.10
2023-04-21T10:21:52.973Z,1007.01
2023-04-21T10:22:53.100Z,1007.02
2023-04-21T10:23:52.986Z,1007.01
2023-04-21T10:24:53.012Z,1007.05
2023-04-21T10:25:53.074Z,1007.04
2023-04-21T10:26:55.118Z,1007.02
2023-04-21T10:27:53.108Z,1007.04
2023-04-21T10:28:53.146Z,1007.10
2023-04-21T10:29:56.966Z,1007.26
2023-04-21T10:30:53.203Z,1007.10
2023-04-21T10:31:53.280Z,1007.25
2023-04-21T10:32:53.302Z,1007.24
2023-04-21T10:33:53.294Z,1007.12
2023-04-21T10:34:53.329Z,1007.00
2023-04-21T10:35:53.360Z,1006.98
2023-04-21T10:36:53.395Z,1006.89
2023-04-21T10:37:53.471Z,1007.01
2023-04-21T10:38:53.461Z,1007.11
2023-04-21T10:39:53.481Z,1007.07
2023-04-21T10:40:53.526Z,1006.90
2023-04-21T10:41:53.566Z,1006.73
2023-04-21T10:42:53.581Z,1006.87
2023-04-21T10:43:53.611Z,1006.75
2023-04-21T10:44:53.650Z,1006.76
2023-04-21T10:45:53.672Z,1006.82
2023-04-21T10:46:53.832Z,1006.79
2023-04-21T10:47:53.794Z,1006.87
2023-04-21T10:48:53.787Z,1006.83
2023-04-21T10:49:53.797Z,1006.72
2023-04-21T10:50:53.836Z,1006.80
2023-04-21T10:51:53.866Z,1006.78
2023-04-21T10:52:53.901Z,1006.79
2023-04-21T10:53:53.929Z,1006.80
2023-04-21T10:54:53.964Z,1006.81
2023-04-21T10:55:53.993Z,1006.74
2023-04-21T10:56:54.053Z,1006.73
2023-04-21T10:57:54.075Z,1006.69
2023-04-21T10:58:54.093Z,1006.63
2023-04-21T10:59:54.128Z,1006.57
2023-04-21T11:00:54.171Z,1006.54
2023-04-21T11:01:54.202Z,1006.41
2023-04-21T11:02:54.349Z,1006.57
2023-04-21T11:03:54.495Z,1006.29
2023-04-21T11:04:54.623Z,1006.48
2023-04-21T11:05:54.317Z,1006.49
2023-04-21T11:06:54.351Z,1006.37
2023-04-21T11:07:54.379Z,1006.41
2023-04-21T11:08:54.424Z,1006.35
2023-04-21T11:09:54.447Z,1006.30
2023-04-21T11:10:54.506Z,1006.29
2023-04-21T11:11:54.511Z,1006.24
2023-04-21T11:12:54.545Z,1006.03
2023-04-21T11:13:54.604Z,1006.07
2023-04-21T11:14:54.610Z,1006.17
2023-04-21T11:15:54.642Z,1006.10
2023-04-21T11:16:54.726Z,1006.08
2023-04-21T11:17:54.712Z,1006.13
2023-04-21T11:18:54.737Z,1006.27
2023-04-21T11:19:54.786Z,1006.26
2023-04-21T11:20:54.798Z,1006.18
2023-04-21T11:21:54.840Z,1006.05
2023-04-21T11:22:54.884Z,1006.21
2023-04-21T11:23:55.220Z,1006.16
2023-04-21T11:24:54.931Z,1006.03
2023-04-21T11:25:54.960Z,1006.12
2023-04-21T11:26:55.001Z,1006.07
2023-04-21T11:27:55.025Z,1006.05
2023-04-21T11:28:55.255Z,1006.01
2023-04-21T11:29:55.104Z,1005.90
2023-04-21T11:30:55.219Z,1005.92
2023-04-21T11:31:55.149Z,1005.87
2023-04-21T11:32:55.205Z,1005.84
2023-04-21T11:33:55.211Z,1005.93
2023-04-21T11:34:55.256Z,1005.78
2023-04-21T11:35:55.307Z,1005.70
2023-04-21T11:36:55.314Z,1005.70
2023-04-21T11:37:55.355Z,1005.87
2023-04-21T11:38:55.381Z,1005.82
2023-04-21T11:39:55.405Z,1005.76
2023-04-21T11:40:55.465Z,1005.75
2023-04-21T11:41:55.674Z,1005.89
2023-04-21T11:42:55.505Z,1005.68
2023-04-21T11:43:55.533Z,1005.76
2023-04-21T11:44:55.578Z,1005.67
2023-04-21T11:46:55.650Z,1005.81
2023-04-21T11:47:55.712Z,1005.80
2023-04-21T11:48:55.694Z,1005.71
2023-04-21T11:49:55.737Z,1005.67
2023-04-21T11:50:55.755Z,1005.74
2023-04-21T11:51:56.120Z,1005.71
2023-04-21T11:52:55.822Z,1005.71
2023-04-21T11:53:55.874Z,1005.69
2023-04-21T11:54:55.898Z,1005.63
2023-04-21T11:55:56.048Z,1005.55
2023-04-21T11:56:55.948Z,1005.39
2023-04-21T11:57:55.983Z,1005.60
2023-04-21T11:58:56.012Z,1005.64
2023-04-21T11:59:56.049Z,1005.65
2023-04-21T12:00:56.255Z,1005.56
2023-04-21T12:01:56.162Z,1005.61
2023-04-21T12:02:56.579Z,1005.44
2023-04-21T12:03:56.416Z,1005.56
2023-04-21T12:04:56.403Z,1005.59
2023-04-21T12:05:56.449Z,1005.48
2023-04-21T12:06:56.579Z,1005.48
2023-04-21T12:07:56.415Z,1005.50
2023-04-21T12:08:56.643Z,1005.52
2023-04-21T12:09:56.557Z,1005.45
2023-04-21T12:10:56.407Z,1005.61
2023-04-21T12:12:00.259Z,1005.56
2023-04-21T12:12:56.446Z,1005.47
2023-04-21T12:13:56.476Z,1005.53
2023-04-21T12:14:56.521Z,1005.40
2023-04-21T12:16:56.569Z,1005.47
2023-04-21T12:17:56.632Z,1005.45
2023-04-21T12:18:56.657Z,1005.40
2023-04-21T12:19:56.664Z,1005.45
2023-04-21T12:20:56.706Z,1005.27
2023-04-21T12:21:56.756Z,1005.29